Time;durP1;ratioP1;P1;durP2;ratioP2;P2;SDS_P1;SDS_P2;PMS_P1;PMS_P2;Temp;Humidity;BMP_temperature;BMP_pressure;BME280_temperature;BME280_humidity;BME280_pressure;Samples;Min_cycle;Max_cycle;Signal;HPM_P1;HPM_P2
2022/01/18 00:00:28;;;;;;;85.55;33.42;;;;;;;-0.48;100.00;99928.34;6215634;23;20220;-96
2022/01/18 00:02:54;;;;;;;100.47;31.80;;;;;;;-0.45;100.00;99949.38;6238295;23;20008;-96
2022/01/18 00:05:20;;;;;;;85.20;33.25;;;;;;;-0.57;100.00;99938.47;6211491;23;20100;-96
2022/01/18 00:07:48;;;;;;;115.72;32.75;;;;;;;-0.28;100.00;99984.84;6211204;23;20104;-95
2022/01/18 00:10:15;;;;;;;63.50;30.10;;;;;;;-0.57;100.00;99941.09;6207554;23;20017;-95
2022/01/18 00:12:55;;;;;;;81.78;29.17;;;;;;;-0.50;100.00;99940.47;6208068;23;20077;-96
2022/01/18 00:28:33;;;;;;;201.38;26.90;;;;;;;-0.32;100.00;99953.31;6279555;22;1504356;-96
2022/01/18 00:44:25;;;;;;;462.67;42.10;;;;;;;-0.24;100.00;99971.06;5167009;27;20357;-96
2022/01/18 00:46:53;;;;;;;209.48;30.05;;;;;;;-0.40;100.00;99957.38;5146272;28;20139;-96
2022/01/18 00:49:20;;;;;;;229.13;35.03;;;;;;;-0.51;100.00;99957.88;5142647;28;20397;-95
2022/01/18 00:51:53;;;;;;;165.85;30.85;;;;;;;-0.61;100.00;99960.97;5142860;28;20047;-95
2022/01/18 00:54:23;;;;;;;208.88;31.52;;;;;;;-0.60;100.00;99968.00;5144128;28;20047;-96
2022/01/18 00:56:52;;;;;;;159.63;30.88;;;;;;;-0.55;100.00;99961.22;5148659;28;20134;-96
2022/01/18 00:59:20;;;;;;;189.52;29.48;;;;;;;-0.32;100.00;99985.56;5147466;28;20473;-95
2022/01/18 01:01:50;;;;;;;155.55;27.13;;;;;;;-0.29;100.00;99976.94;5141015;28;20045;-96
2022/01/18 01:04:18;;;;;;;140.43;26.13;;;;;;;-0.36;100.00;99978.44;5139669;28;20036;-95
2022/01/18 01:06:44;;;;;;;154.02;27.17;;;;;;;-0.22;100.00;100015.53;5135041;28;20065;-96
2022/01/18 01:09:10;;;;;;;127.10;25.58;;;;;;;-0.38;100.00;100008.88;5140971;28;20043;-95
2022/01/18 01:11:39;;;;;;;209.65;27.23;;;;;;;-0.38;100.00;100006.25;5139963;28;20046;-95
2022/01/18 01:14:07;;;;;;;258.08;29.92;;;;;;;-0.38;100.00;100016.72;5139942;28;20059;-96
2022/01/18 01:44:47;;;;;;;84.78;22.80;;;;;;;-0.72;100.00;100020.66;6306008;22;1394696;-95
2022/01/18 01:47:18;;;;;;;70.22;22.70;;;;;;;-0.67;100.00;100029.56;6359361;22;20367;-95
2022/01/18 01:49:49;;;;;;;99.55;24.35;;;;;;;-0.65;100.00;100014.84;6359147;22;20018;-96
2022/01/18 01:52:16;;;;;;;148.27;23.02;;;;;;;-0.50;100.00;100030.22;6333528;22;20022;-95
2022/01/18 01:54:44;;;;;;;162.32;24.10;;;;;;;-0.38;100.00;100021.94;6337170;22;20080;-95
2022/01/18 01:57:11;;;;;;;125.28;21.50;;;;;;;-0.06;100.00;100046.63;6338103;22;20041;-96
2022/01/18 01:59:40;;;;;;;96.18;21.45;;;;;;;-0.12;100.00;100006.31;6337908;22;20017;-96
2022/01/18 02:02:08;;;;;;;147.07;22.92;;;;;;;-0.07;100.00;99996.88;6334462;22;20015;-96
2022/01/18 02:04:59;;;;;;;137.05;21.83;;;;;;;-0.01;100.00;99987.53;6336468;22;20015;-95
2022/01/18 02:07:25;;;;;;;164.73;20.67;;;;;;;0.04;100.00;99979.84;6338087;22;20019;-95
2022/01/18 02:09:54;;;;;;;91.95;19.08;;;;;;;0.18;100.00;99989.06;6338243;22;19999;-96
2022/01/18 02:12:24;;;;;;;102.28;19.58;;;;;;;0.11;100.00;99967.84;6328821;22;20452;-96
2022/01/18 02:14:57;;;;;;;153.55;22.05;;;;;;;0.18;100.00;99985.56;6329529;22;20038;-96
2022/01/18 02:37:31;;;;;;;217.35;20.00;;;;;;;-0.03;100.00;99956.94;6171824;23;20348;-95
2022/01/18 02:39:57;;;;;;;166.35;18.83;;;;;;;0.02;100.00;99968.44;6172259;23;20096;-94
2022/01/18 02:42:41;;;;;;;253.45;23.70;;;;;;;-0.26;100.00;99956.13;6166217;23;20018;-95
2022/01/18 02:45:11;;;;;;;152.75;19.00;;;;;;;-0.21;100.00;99944.13;6176076;23;20005;-95
2022/01/18 02:47:39;;;;;;;203.90;21.98;;;;;;;-0.13;100.00;99954.84;6172729;23;20032;-95
2022/01/18 02:50:06;;;;;;;146.55;20.30;;;;;;;-0.07;100.00;99968.13;6165380;23;20018;-95
2022/01/18 02:52:34;;;;;;;204.73;19.75;;;;;;;-0.14;100.00;99953.97;6173391;23;20013;-96
2022/01/18 02:55:00;;;;;;;177.60;18.38;;;;;;;-0.04;100.00;99948.22;6173588;23;20032;-95
2022/01/18 02:57:26;;;;;;;192.55;19.60;;;;;;;-0.12;100.00;99944.44;6139598;23;20022;-94
2022/01/18 03:05:55;;;;;;;169.35;19.00;;;;;;;-0.31;100.00;99950.75;5118533;27;20373;-96
2022/01/18 03:08:21;;;;;;;144.48;19.95;;;;;;;-0.26;100.00;99977.03;5117826;28;20071;-94
2022/01/18 03:10:48;;;;;;;82.80;16.52;;;;;;;-0.37;100.00;99963.59;5120878;28;20485;-95
2022/01/18 03:13:14;;;;;;;120.70;18.48;;;;;;;-0.31;100.00;99962.94;5118876;28;20486;-95
2022/01/18 03:15:40;;;;;;;107.97;19.50;;;;;;;-0.27;100.00;99959.59;5115560;28;20048;-95
2022/01/18 03:18:07;;;;;;;87.93;20.25;;;;;;;-0.35;100.00;99959.31;5116522;28;20093;-94
2022/01/18 03:20:36;;;;;;;120.45;20.58;;;;;;;-0.45;100.00;99947.66;5118655;28;20043;-95
2022/01/18 03:23:11;;;;;;;82.88;18.15;;;;;;;-0.35;100.00;99946.25;5123759;28;20047;-95
2022/01/18 03:25:51;;;;;;;133.07;18.27;;;;;;;-0.23;100.00;99948.41;5120324;28;20044;-94
2022/01/18 03:28:17;;;;;;;115.80;19.45;;;;;;;-0.24;100.00;99950.16;5121360;28;20366;-94
2022/01/18 03:30:47;;;;;;;106.15;18.15;;;;;;;-0.22;100.00;99974.63;5114663;28;20046;-94
2022/01/18 03:33:16;;;;;;;137.10;17.92;;;;;;;-0.24;100.00;99958.00;5121105;28;20043;-95
2022/01/18 03:35:47;;;;;;;75.93;16.45;;;;;;;-0.15;100.00;99962.66;5122418;28;20124;-94
2022/01/18 03:38:17;;;;;;;102.85;18.23;;;;;;;-0.15;100.00;99965.25;5119349;28;20077;-96
2022/01/18 03:40:43;;;;;;;58.63;16.70;;;;;;;-0.02;100.00;99982.28;5123087;28;20043;-95
2022/01/18 03:43:13;;;;;;;207.35;17.48;;;;;;;-0.05;100.00;99976.91;5119687;28;20048;-95
2022/01/18 03:45:42;;;;;;;211.68;19.48;;;;;;;0.01;100.00;99981.47;5119228;28;20040;-95
2022/01/18 03:48:12;;;;;;;;;;;;;;;0.06;100.00;100006.94;5118879;28;20051;-94
2022/01/18 03:50:38;;;;;;;116.70;17.20;;;;;;;-0.16;100.00;99968.69;5120307;28;19964;-95
2022/01/18 03:53:05;;;;;;;184.35;17.75;;;;;;;-0.03;100.00;99980.47;5121098;28;20039;-96
2022/01/18 03:55:32;;;;;;;95.63;14.70;;;;;;;-0.12;100.00;99985.41;5121284;28;20374;-96
2022/01/18 03:57:58;;;;;;;132.13;17.52;;;;;;;-0.21;100.00;99976.38;5118849;28;20078;-95
2022/01/18 04:00:26;;;;;;;197.32;17.77;;;;;;;-0.11;100.00;99981.94;5118289;28;20482;-93
2022/01/18 04:02:54;;;;;;;167.02;18.85;;;;;;;-0.18;100.00;99972.09;5118369;28;20043;-95
2022/01/18 04:05:21;;;;;;;196.27;21.40;;;;;;;-0.12;100.00;99999.34;5116581;28;20146;-94
2022/01/18 04:07:48;;;;;;;131.68;17.40;;;;;;;-0.21;100.00;99997.28;5114447;28;20043;-94
2022/01/18 04:10:17;;;;;;;121.10;18.95;;;;;;;-0.29;100.00;100000.47;5112901;28;20062;-94
2022/01/18 04:12:47;;;;;;;74.05;16.70;;;;;;;-0.35;100.00;99992.41;5115070;28;20505;-95
2022/01/18 04:15:15;;;;;;;53.53;16.10;;;;;;;-0.32;100.00;100003.88;5115135;28;20066;-94
2022/01/18 04:30:50;;;;;;;36.85;14.75;;;;;;;-0.19;100.00;99986.03;6225343;22;1487881;-95
2022/01/18 04:33:17;;;;;;;31.88;15.68;;;;;;;-0.14;100.00;99998.41;6271371;23;20042;-95
2022/01/18 04:35:43;;;;;;;37.35;16.60;;;;;;;-0.26;100.00;100003.19;6270791;23;20023;-95
2022/01/18 04:38:09;;;;;;;40.33;15.55;;;;;;;-0.34;100.00;100005.53;6238978;23;20024;-94
2022/01/18 04:40:41;;;;;;;42.40;16.02;;;;;;;-0.35;100.00;100011.56;6239004;23;20078;-95
2022/01/18 04:43:16;;;;;;;61.72;15.70;;;;;;;-0.27;100.00;100004.91;6240669;23;20017;-95
2022/01/18 04:48:52;;;;;;;91.38;14.52;;;;;;;-0.07;100.00;100016.06;5141542;27;20116;-95
2022/01/18 04:51:18;;;;;;;30.33;12.02;;;;;;;-0.06;100.00;100017.00;5142755;28;20043;-94
2022/01/18 04:53:52;;;;;;;34.28;13.60;;;;;;;-0.03;100.00;100006.63;5141915;27;20048;-95
2022/01/18 04:56:30;;;;;;;66.68;14.15;;;;;;;0.01;100.00;100011.13;5142677;27;20042;-95
2022/01/18 04:58:56;;;;;;;44.67;14.15;;;;;;;-0.05;100.00;100011.78;5143649;27;20107;-96
2022/01/18 05:01:22;;;;;;;102.00;15.60;;;;;;;-0.06;100.00;99996.94;5145171;27;20052;-95
2022/01/18 05:03:48;;;;;;;121.20;15.23;;;;;;;-0.02;100.00;100009.31;5145357;27;20047;-95
2022/01/18 05:06:18;;;;;;;89.60;13.85;;;;;;;0.11;100.00;100004.47;5144512;27;20488;-95
2022/01/18 05:08:44;;;;;;;;;;;;;;;0.40;100.00;100044.75;5142932;27;20604;-96
2022/01/18 05:11:15;;;;;;;168.45;15.38;;;;;;;0.28;100.00;100034.72;5142886;27;19919;-95
2022/01/18 05:17:00;;;;;;;176.82;17.00;;;;;;;0.14;100.00;100056.91;5206207;27;20875;-96
2022/01/18 05:32:50;;;;;;;83.80;13.45;;;;;;;0.07;100.00;100062.78;6247879;22;1474502;-95
2022/01/18 05:35:16;;;;;;;101.43;16.02;;;;;;;-0.01;100.00;100054.63;6301752;22;20099;-95
2022/01/18 05:37:42;;;;;;;68.75;14.25;;;;;;;-0.08;100.00;100056.16;6300249;22;20510;-94
2022/01/18 05:40:09;;;;;;;119.10;15.85;;;;;;;-0.07;100.00;100064.88;6296766;22;20047;-96
2022/01/18 05:42:35;;;;;;;53.90;14.15;;;;;;;0.19;100.00;100091.97;6301188;22;20016;-95
2022/01/18 05:45:02;;;;;;;33.63;13.60;;;;;;;0.03;100.00;100047.81;6300918;22;20039;-94
2022/01/18 05:47:28;;;;;;;118.97;15.88;;;;;;;0.13;100.00;100049.88;6269074;22;20016;-95
2022/01/18 05:49:55;;;;;;;62.97;14.73;;;;;;;0.01;100.00;100045.13;6265863;22;20016;-96
2022/01/18 05:52:22;;;;;;;93.28;15.45;;;;;;;0.30;100.00;100089.72;6270101;22;20058;-95
2022/01/18 05:54:48;;;;;;;54.00;13.43;;;;;;;0.04;100.00;100054.81;6270628;22;20080;-95
2022/01/18 05:57:14;;;;;;;78.88;14.52;;;;;;;0.22;100.00;100063.31;6270645;22;20020;-95
2022/01/18 05:59:44;;;;;;;98.18;15.05;;;;;;;0.20;100.00;100064.97;6266333;22;20020;-95
2022/01/18 06:02:18;;;;;;;58.67;13.98;;;;;;;0.08;100.00;100054.06;6267848;22;20103;-95
2022/01/18 06:07:54;;;;;;;70.53;13.63;;;;;;;0.16;100.00;100045.66;5206761;27;20173;-96
2022/01/18 06:10:20;;;;;;;123.68;16.05;;;;;;;0.08;100.00;100046.22;5205811;27;20050;-95
2022/01/18 06:12:46;;;;;;;115.40;14.80;;;;;;;0.20;100.00;100071.09;5203707;27;20133;-95
2022/01/18 06:15:13;;;;;;;139.40;18.45;;;;;;;-0.13;100.00;100043.72;5201044;27;20042;-95
2022/01/18 06:17:39;;;;;;;203.95;23.20;;;;;;;0.05;100.00;100098.44;5198069;27;20056;-91
2022/01/18 06:20:06;;;;;;;70.07;15.55;;;;;;;-0.19;100.00;100059.22;5201727;27;20042;-95
2022/01/18 06:22:34;;;;;;;146.25;17.85;;;;;;;-0.06;100.00;100078.00;5199214;27;20038;-95
2022/01/18 06:25:01;;;;;;;125.50;17.58;;;;;;;0.10;100.00;100115.19;5198111;27;20383;-94
2022/01/18 06:27:27;;;;;;;66.85;14.52;;;;;;;-0.16;100.00;100069.78;5201470;27;20068;-94
2022/01/18 06:29:55;;;;;;;117.50;15.82;;;;;;;-0.14;100.00;100062.88;5200362;27;20133;-94
2022/01/18 06:32:21;;;;;;;50.22;14.05;;;;;;;-0.06;100.00;100077.13;5204165;27;20042;-94
2022/01/18 06:34:47;;;;;;;84.65;17.13;;;;;;;-0.14;100.00;100070.72;5200912;27;20102;-94
2022/01/18 06:37:14;;;;;;;86.90;16.73;;;;;;;-0.18;100.00;100074.06;5200398;27;20035;-96
2022/01/18 06:39:40;;;;;;;102.68;16.08;;;;;;;-0.17;100.00;100092.41;5201297;27;20093;-95
2022/01/18 06:42:12;;;;;;;74.78;15.95;;;;;;;-0.04;100.00;100104.22;5202926;27;20077;-95
2022/01/18 06:44:39;;;;;;;46.72;16.63;;;;;;;-0.14;100.00;100089.03;5205437;27;20125;-96
2022/01/18 06:47:06;;;;;;;39.10;16.55;;;;;;;-0.11;100.00;100081.28;5209274;27;20041;-94
2022/01/18 06:49:37;;;;;;;55.97;14.70;;;;;;;-0.03;100.00;100091.19;5210371;27;20069;-94
2022/01/18 06:52:03;;;;;;;;;;;;;;;0.26;100.00;100135.84;5209581;27;20046;-96
2022/01/18 06:54:29;;;;;;;96.20;16.45;;;;;;;0.01;100.00;100091.31;5210754;27;19914;-94
2022/01/18 06:56:56;;;;;;;70.78;16.77;;;;;;;0.10;100.00;100097.75;5211876;27;20094;-96
2022/01/18 06:59:24;;;;;;;54.50;17.58;;;;;;;0.26;100.00;100124.47;5210598;27;20042;-96
2022/01/18 07:01:51;;;;;;;56.60;17.38;;;;;;;0.11;100.00;100106.47;5211524;27;20102;-96
2022/01/18 07:04:19;;;;;;;67.97;17.38;;;;;;;0.43;100.00;100156.47;5211000;27;20084;-96
2022/01/18 07:06:45;;;;;;;59.88;16.58;;;;;;;0.18;100.00;100117.25;5212795;27;20133;-94
2022/01/18 07:09:14;;;;;;;121.35;20.65;;;;;;;0.25;100.00;100127.94;5208339;27;20069;-96
2022/01/18 07:11:41;;;;;;;150.38;20.73;;;;;;;0.20;100.00;100125.16;5209764;27;20052;-96
2022/01/18 07:14:08;;;;;;;66.05;18.35;;;;;;;0.50;100.00;100155.84;5211271;27;20063;-96
2022/01/18 07:16:39;;;;;;;100.85;21.45;;;;;;;0.37;100.00;100124.03;5210460;27;20475;-96
2022/01/18 07:19:06;;;;;;;85.53;17.65;;;;;;;0.29;100.00;100128.09;5195328;27;20046;-96
2022/01/18 07:21:33;;;;;;;58.83;15.48;;;;;;;0.54;100.00;100168.22;5193948;27;20110;-96
2022/01/18 07:24:05;;;;;;;72.38;17.23;;;;;;;0.07;100.00;100123.81;5190557;27;20046;-96
2022/01/18 07:26:32;;;;;;;80.68;17.63;;;;;;;0.04;100.00;100131.53;5193186;27;20038;-96
2022/01/18 07:28:59;;;;;;;52.22;16.30;;;;;;;-0.01;100.00;100133.09;5192715;27;20070;-96
2022/01/18 07:31:28;;;;;;;89.70;16.38;;;;;;;0.10;100.00;100157.91;5194745;27;20050;-96
2022/01/18 07:33:58;;;;;;;58.50;16.13;;;;;;;0.02;100.00;100140.16;5196067;27;20072;-96
2022/01/18 07:36:33;;;;;;;77.57;17.40;;;;;;;0.07;100.00;100152.59;5198033;27;20038;-96
2022/01/18 07:39:06;;;;;;;108.28;18.13;;;;;;;0.00;100.00;100142.75;5199974;27;20042;-96
2022/01/18 07:41:53;;;;;;;63.58;16.88;;;;;;;0.06;100.00;100156.00;5199729;27;20066;-96
2022/01/18 07:44:20;;;;;;;;;;;;;;;0.35;100.00;100204.19;5190119;27;20077;-94
2022/01/18 07:46:47;;;;;;;54.47;17.10;;;;;;;0.26;100.00;100182.00;5196765;27;19925;-95
2022/01/18 07:49:14;;;;;;;53.42;15.88;;;;;;;0.22;100.00;100164.41;5188999;27;20491;-96
2022/01/18 07:51:44;;;;;;;105.72;21.30;;;;;;;0.20;100.00;100167.88;5193133;27;20050;-96
2022/01/18 07:54:13;;;;;;;94.38;23.30;;;;;;;0.13;100.00;100171.13;5193448;27;20050;-96
2022/01/18 07:56:41;;;;;;;76.72;19.50;;;;;;;0.21;100.00;100168.78;5198321;27;20026;-96
2022/01/18 07:59:09;;;;;;;64.30;18.52;;;;;;;0.32;100.00;100174.41;5195692;27;20053;-96
2022/01/18 08:01:37;;;;;;;103.70;25.10;;;;;;;0.42;100.00;100215.78;5192281;27;20038;-96
2022/01/18 08:04:04;;;;;;;104.27;24.83;;;;;;;0.26;100.00;100175.09;5193138;27;20476;-96
2022/01/18 08:06:32;;;;;;;78.40;20.23;;;;;;;0.34;100.00;100181.47;5191523;27;20046;-96
2022/01/18 08:08:58;;;;;;;110.22;18.80;;;;;;;0.41;100.00;100174.72;5193059;27;20098;-96
2022/01/18 08:11:25;;;;;;;99.80;19.15;;;;;;;0.47;100.00;100163.59;5193096;27;20047;-95
2022/01/18 08:13:51;;;;;;;88.10;23.38;;;;;;;0.64;100.00;100180.78;5192083;27;20050;-96
2022/01/18 08:29:39;;;;;;;68.03;20.30;;;;;;;0.91;100.00;100177.34;5791990;22;11577113;-96
2022/01/18 08:32:07;;;;;;;134.00;20.08;;;;;;;0.96;100.00;100184.53;6272706;23;20026;-95
2022/01/18 08:34:33;;;;;;;73.35;18.58;;;;;;;1.15;100.00;100213.97;6275801;23;20019;-93
2022/01/18 08:37:02;;;;;;;99.45;19.98;;;;;;;1.13;100.00;100197.28;6264881;23;20447;-93
2022/01/18 08:39:28;;;;;;;99.18;20.00;;;;;;;1.23;100.00;100215.13;6256738;23;20071;-94
2022/01/18 08:41:55;;;;;;;72.45;18.58;;;;;;;1.07;100.00;100197.13;6263705;23;20019;-96
2022/01/18 08:44:22;;;;;;;59.20;18.35;;;;;;;1.20;100.00;100215.91;6270459;23;20020;-94
2022/01/18 08:46:49;;;;;;;56.83;18.55;;;;;;;1.24;100.00;100222.16;6273498;23;20035;-96
2022/01/18 08:49:16;;;;;;;77.07;19.33;;;;;;;1.40;100.00;100236.66;6271006;23;20016;-96
2022/01/18 08:51:42;;;;;;;75.28;19.77;;;;;;;1.22;100.00;100206.38;6273430;23;20027;-96
2022/01/18 08:54:09;;;;;;;102.20;21.73;;;;;;;1.16;100.00;100208.78;6272687;23;20016;-95
2022/01/18 08:56:35;;;;;;;94.20;23.50;;;;;;;1.42;100.00;100248.09;6271970;23;20039;-95
2022/01/18 08:59:02;;;;;;;93.30;21.05;;;;;;;1.29;100.00;100220.56;6271683;23;20236;-96
2022/01/18 09:01:28;;;;;;;59.67;19.02;;;;;;;1.25;100.00;100218.69;6269339;23;20106;-96
2022/01/18 09:03:58;;;;;;;74.90;20.30;;;;;;;1.55;100.00;100271.25;6271556;23;20016;-96
2022/01/18 09:06:25;;;;;;;109.72;22.60;;;;;;;1.40;100.00;100234.91;6270114;23;20020;-95
2022/01/18 09:08:56;;;;;;;89.07;22.83;;;;;;;1.33;100.00;100226.81;6239658;23;20032;-96
2022/01/18 09:11:26;;;;;;;73.88;20.73;;;;;;;1.54;100.00;100277.34;6239528;23;20020;-95
2022/01/18 09:13:53;;;;;;;113.82;20.75;;;;;;;1.24;100.00;100243.13;6239332;23;20093;-96
2022/01/18 09:16:27;;;;;;;112.05;20.60;;;;;;;1.39;100.00;100258.47;6238757;23;20355;-96
2022/01/18 09:18:53;;;;;;;91.22;21.08;;;;;;;1.28;100.00;100231.00;6238612;23;20016;-95
2022/01/18 09:21:21;;;;;;;97.32;21.63;;;;;;;1.46;100.00;100262.19;6239461;23;20383;-96
2022/01/18 09:23:47;;;;;;;87.35;20.98;;;;;;;1.35;100.00;100261.81;6239846;23;20044;-96
2022/01/18 09:26:15;;;;;;;149.75;22.45;;;;;;;1.55;100.00;100278.22;6240891;23;20447;-95
2022/01/18 09:28:41;;;;;;;75.93;21.60;;;;;;;1.61;100.00;100275.81;6237060;23;20023;-95
2022/01/18 09:31:07;;;;;;;138.68;22.23;;;;;;;1.64;100.00;100265.41;6232500;23;20023;-96
2022/01/18 09:33:34;;;;;;;99.15;22.00;;;;;;;1.66;100.00;100296.94;6231117;23;20016;-96
2022/01/18 09:36:03;;;;;;;105.78;23.42;;;;;;;1.33;100.00;100269.63;6231387;23;20380;-94
2022/01/18 09:38:32;;;;;;;76.72;21.60;;;;;;;1.40;100.00;100266.38;6231574;23;20340;-96
2022/01/18 09:41:08;;;;;;;68.63;21.20;;;;;;;1.64;100.00;100289.00;6232927;23;20021;-96
2022/01/18 09:43:38;;;;;;;64.00;19.98;;;;;;;1.76;100.00;100302.53;6232239;23;20093;-95
2022/01/18 09:46:07;;;;;;;102.70;22.52;;;;;;;1.75;100.00;100274.50;6229583;23;20471;-96
2022/01/18 09:48:56;;;;;;;81.40;27.55;;;;;;;1.94;100.00;100278.63;6094254;23;20118;-96
2022/01/18 09:51:50;;;;;;;86.63;29.70;;;;;;;2.08;100.00;100286.91;6241851;23;20031;-96
2022/01/18 09:55:09;;;;;;;60.30;19.58;;;;;;;2.34;100.00;100320.97;6242323;23;20010;-96
2022/01/18 10:01:07;;;;;;;48.42;19.88;;;;;;;2.28;100.00;100287.56;6235929;23;20024;-95
2022/01/18 10:03:41;;;;;;;42.13;19.38;;;;;;;2.32;100.00;100264.91;6232843;23;20023;-96
2022/01/18 10:06:07;;;;;;;;;;;;;;;2.49;100.00;100310.94;6226353;23;20043;-94
2022/01/18 10:08:37;;;;;;;42.50;18.08;;;;;;;2.26;100.00;100274.38;6228735;23;19916;-95
2022/01/18 10:11:13;;;;;;;39.47;18.23;;;;;;;2.37;100.00;100272.06;6230465;23;20099;-94
2022/01/18 10:13:42;;;;;;;54.38;21.30;;;;;;;2.42;100.00;100278.34;6229090;23;20025;-95
2022/01/18 10:16:11;;;;;;;51.95;20.85;;;;;;;2.33;100.00;100271.94;6229719;23;20024;-95
2022/01/18 10:18:45;;;;;;;72.47;21.05;;;;;;;2.47;100.00;100283.72;6230044;23;20066;-96
2022/01/18 10:21:12;;;;;;;74.30;22.33;;;;;;;2.58;99.29;100326.97;6231069;23;20012;-95
2022/01/18 10:23:39;;;;;;;59.72;29.55;;;;;;;2.23;100.00;100273.38;6228703;23;20016;-93
2022/01/18 10:26:23;;;;;;;53.88;22.05;;;;;;;2.36;100.00;100290.41;6231588;23;20046;-94
2022/01/18 10:29:00;;;;;;;43.45;21.10;;;;;;;2.49;100.00;100283.78;6232971;23;20017;-94
2022/01/18 10:31:31;;;;;;;98.38;43.33;;;;;;;2.50;99.82;100265.47;6226587;23;20020;-95
2022/01/18 10:34:22;;;;;;;48.15;21.60;;;;;;;2.61;99.86;100271.91;6228930;23;20051;-94
2022/01/18 10:37:00;;;;;;;65.40;22.10;;;;;;;2.85;97.24;100279.59;6232180;23;20017;-96
2022/01/18 10:39:28;;;;;;;72.22;30.95;;;;;;;2.87;98.30;100298.91;6227960;23;20021;-94
2022/01/18 10:41:56;;;;;;;87.60;23.48;;;;;;;2.84;96.73;100263.78;6224344;23;20017;-94
2022/01/18 10:44:24;;;;;;;77.65;23.75;;;;;;;2.73;97.36;100265.22;6222115;23;20019;-96
2022/01/18 10:46:52;;;;;;;43.63;21.92;;;;;;;2.88;98.81;100263.03;6222889;23;20016;-95
2022/01/18 10:49:31;;;;;;;54.05;21.48;;;;;;;3.00;97.85;100270.38;6224116;23;20024;-95
2022/01/18 10:51:59;;;;;;;63.10;21.48;;;;;;;2.83;97.39;100256.75;6226840;23;20078;-95
2022/01/18 10:54:35;;;;;;;74.30;22.53;;;;;;;2.77;97.60;100269.72;6223954;23;20020;-96
2022/01/18 10:57:04;;;;;;;67.60;25.50;;;;;;;2.83;100.00;100273.41;6225552;23;20020;-95
2022/01/18 10:59:30;;;;;;;55.75;28.45;;;;;;;2.95;99.57;100291.28;6222324;23;20031;-94
2022/01/18 11:02:13;;;;;;;67.30;27.95;;;;;;;2.78;98.48;100254.00;6222625;23;20020;-94
2022/01/18 11:04:42;;;;;;;54.45;24.08;;;;;;;2.92;100.00;100267.50;6222690;23;20020;-95
2022/01/18 11:07:09;;;;;;;52.78;22.40;;;;;;;3.46;96.14;100295.25;6219890;23;20017;-92
2022/01/18 11:09:36;;;;;;;60.08;24.88;;;;;;;3.26;95.78;100260.56;6222665;23;20455;-95
2022/01/18 11:12:05;;;;;;;60.05;23.83;;;;;;;3.34;95.39;100261.66;6221883;23;20039;-93
2022/01/18 11:14:32;;;;;;;63.35;28.35;;;;;;;3.53;93.73;100286.66;6222296;23;20024;-95
2022/01/18 11:16:59;;;;;;;58.28;26.63;;;;;;;3.42;96.06;100265.34;6227264;23;20037;-93
2022/01/18 11:22:10;;;;;;;55.28;24.30;;;;;;;3.84;94.07;100277.81;5097853;27;20386;-94
2022/01/18 11:24:39;;;;;;;48.47;23.05;;;;;;;3.77;91.95;100267.09;5098481;28;20048;-96
2022/01/18 11:27:10;;;;;;;67.47;29.70;;;;;;;3.77;91.99;100267.97;5099632;28;20052;-96
2022/01/18 11:29:37;;;;;;;53.15;25.45;;;;;;;3.96;91.57;100269.31;5098193;28;20588;-94
2022/01/18 11:32:04;;;;;;;56.33;25.98;;;;;;;3.89;92.53;100262.13;5096712;28;20552;-95
2022/01/18 11:34:44;;;;;;;59.13;26.80;;;;;;;3.91;94.09;100265.69;5095087;28;20494;-95
2022/01/18 11:37:17;;;;;;;61.92;28.40;;;;;;;3.97;94.50;100271.09;5093013;28;20498;-94
2022/01/18 11:39:43;;;;;;;65.32;29.73;;;;;;;4.26;94.60;100289.31;5094289;28;20036;-95
2022/01/18 11:42:13;;;;;;;63.33;29.38;;;;;;;4.12;94.46;100270.56;5094392;28;20106;-96
2022/01/18 11:44:40;;;;;;;73.57;32.72;;;;;;;4.15;94.07;100262.72;5093923;28;20044;-94
2022/01/18 11:47:08;;;;;;;69.50;32.28;;;;;;;4.35;93.57;100283.34;5094764;28;20131;-95
2022/01/18 11:49:36;;;;;;;60.63;29.47;;;;;;;4.49;93.68;100277.53;5093841;28;20490;-95
2022/01/18 11:52:09;;;;;;;64.30;29.48;;;;;;;4.36;93.34;100249.16;5094048;28;20045;-96
2022/01/18 11:57:38;;;;;;;67.22;30.80;;;;;;;4.49;92.63;100263.50;5134979;27;20379;-94
2022/01/18 12:00:24;;;;;;;71.03;31.48;;;;;;;4.39;90.51;100261.50;5139821;27;20074;-95
2022/01/18 12:02:55;;;;;;;74.88;32.78;;;;;;;4.42;92.36;100258.94;5144708;27;20074;-96
2022/01/18 12:05:25;;;;;;;71.38;30.02;;;;;;;4.41;91.75;100247.50;5146805;27;20043;-95
2022/01/18 12:07:57;;;;;;;65.47;31.30;;;;;;;4.49;92.35;100250.31;5136304;27;20059;-93
2022/01/18 12:10:43;;;;;;;66.45;30.10;;;;;;;4.46;91.37;100261.66;5134810;27;20044;-94
2022/01/18 12:13:22;;;;;;;66.72;31.38;;;;;;;4.55;92.77;100250.41;5134283;27;20044;-95
2022/01/18 12:15:52;;;;;;;72.60;32.65;;;;;;;4.35;91.61;100254.38;5139054;27;20130;-94
2022/01/18 12:18:20;;;;;;;77.65;32.88;;;;;;;4.47;93.23;100281.88;5138309;27;20521;-95
2022/01/18 12:20:48;;;;;;;72.05;30.98;;;;;;;4.41;93.10;100247.50;5138170;27;20063;-93
2022/01/18 12:23:18;;;;;;;69.23;32.20;;;;;;;4.62;91.89;100270.78;5134892;27;20061;-94
2022/01/18 12:25:57;;;;;;;65.40;29.73;;;;;;;4.44;93.37;100278.28;5137840;27;20054;-94
2022/01/18 12:32:18;;;;;;;73.13;30.40;;;;;;;4.51;93.10;100270.56;5135360;27;20399;-94
2022/01/18 12:34:47;;;;;;;63.97;29.42;;;;;;;4.66;93.52;100280.53;5141657;28;20130;-93
2022/01/18 12:37:48;;;;;;;67.57;29.58;;;;;;;4.76;92.09;100276.34;5142095;28;20047;-94
2022/01/18 12:40:32;;;;;;;58.25;28.80;;;;;;;4.81;92.54;100282.56;5141703;28;20047;-94
2022/01/18 12:45:53;;;;;;;74.07;33.70;;;;;;;4.73;91.48;100281.56;5116879;27;20892;-94
2022/01/18 12:48:20;;;;;;;77.65;32.28;;;;;;;4.67;91.23;100279.66;5077669;28;20053;-94
2022/01/18 12:50:51;;;;;;;62.83;30.02;;;;;;;4.36;92.94;100251.78;5073985;28;20068;-93
2022/01/18 12:53:20;;;;;;;68.85;30.55;;;;;;;4.41;93.45;100259.78;5072856;28;20114;-94
2022/01/18 12:55:48;;;;;;;65.17;29.77;;;;;;;4.45;93.67;100265.16;5072098;28;20102;-92
2022/01/18 12:58:17;;;;;;;67.95;29.20;;;;;;;4.35;93.30;100254.38;5072328;28;20286;-93
2022/01/18 13:00:46;;;;;;;66.68;30.52;;;;;;;4.40;93.05;100258.00;5051681;28;20570;-93
2022/01/18 13:03:19;;;;;;;72.22;30.70;;;;;;;4.40;94.39;100260.63;5051874;28;20041;-92
2022/01/18 13:05:46;;;;;;;67.80;30.83;;;;;;;4.50;94.03;100267.88;5054972;28;20037;-91
2022/01/18 13:08:15;;;;;;;72.88;31.48;;;;;;;4.39;92.46;100250.97;5071241;28;20100;-94
2022/01/18 13:10:44;;;;;;;73.55;31.05;;;;;;;4.33;93.42;100244.69;5071253;28;20074;-94
2022/01/18 13:13:14;;;;;;;82.00;33.20;;;;;;;4.26;92.79;100241.91;5072150;28;20044;-93
2022/01/18 13:15:50;;;;;;;69.57;29.83;;;;;;;4.18;94.62;100243.47;5072031;28;20044;-95
2022/01/18 13:27:38;;;;;;;76.88;32.53;;;;;;;4.02;96.86;100237.88;5175607;27;20361;-94
2022/01/18 13:30:09;;;;;;;73.25;32.10;;;;;;;4.03;96.08;100236.13;5155443;27;20092;-95
2022/01/18 13:32:37;;;;;;;78.35;32.90;;;;;;;4.04;96.51;100230.91;5155994;27;20043;-93
2022/01/18 13:35:05;;;;;;;79.25;33.63;;;;;;;4.03;95.86;100226.47;5155934;27;20047;-95
2022/01/18 13:37:33;;;;;;;76.93;33.58;;;;;;;4.11;95.52;100231.91;5155714;27;20396;-94
2022/01/18 13:40:02;;;;;;;79.03;35.17;;;;;;;4.12;95.94;100228.44;5157797;27;20067;-94
2022/01/18 13:42:37;;;;;;;81.57;34.15;;;;;;;4.20;96.50;100258.44;5156612;27;20047;-94
2022/01/18 13:45:08;;;;;;;79.82;34.45;;;;;;;4.08;97.22;100266.97;5153465;27;20042;-93
2022/01/18 13:47:39;;;;;;;87.57;35.63;;;;;;;3.85;98.50;100223.44;5153590;27;20043;-94
2022/01/18 13:50:06;;;;;;;81.75;33.70;;;;;;;3.97;98.25;100225.44;5154565;27;20043;-93
2022/01/18 13:52:32;;;;;;;81.75;34.17;;;;;;;4.16;97.64;100261.88;5153848;27;20039;-93
2022/01/18 13:54:59;;;;;;;93.03;37.25;;;;;;;4.03;98.29;100221.22;5154395;27;20043;-94